createdAt,value
2019-03-27T00:02:31.320Z,91.70
2019-03-27T00:05:02.114Z,91.80
2019-03-27T00:07:34.553Z,92.00
2019-03-27T00:10:04.882Z,92.20
2019-03-27T00:12:34.719Z,92.40
2019-03-27T00:15:12.790Z,92.50
2019-03-27T00:17:35.321Z,92.50
2019-03-27T00:20:09.827Z,92.40
2019-03-27T00:22:41.411Z,92.30
2019-03-27T00:25:11.896Z,92.40
2019-03-27T00:27:42.217Z,92.20
2019-03-27T00:30:14.213Z,92.20
2019-03-27T00:32:44.150Z,92.10
2019-03-27T00:35:13.039Z,92.00
2019-03-27T00:37:44.170Z,91.90
2019-03-27T00:40:18.866Z,92.00
2019-03-27T00:42:48.769Z,92.00
2019-03-27T00:45:26.399Z,92.10
2019-03-27T00:47:53.523Z,92.50
2019-03-27T00:50:28.105Z,92.30
2019-03-27T00:52:59.230Z,92.60
2019-03-27T00:55:29.082Z,92.70
2019-03-27T00:57:59.051Z,92.90
2019-03-27T01:00:45.681Z,93.20
2019-03-27T01:03:14.399Z,93.40
2019-03-27T01:05:53.984Z,93.60
2019-03-27T01:08:24.065Z,93.90
2019-03-27T01:10:53.477Z,93.90
2019-03-27T01:13:26.716Z,94.20
2019-03-27T01:15:55.373Z,94.40
2019-03-27T01:18:26.929Z,94.30
2019-03-27T01:20:55.801Z,94.10
2019-03-27T01:23:25.964Z,94.00
2019-03-27T01:25:55.775Z,94.10
2019-03-27T01:28:25.783Z,94.00
2019-03-27T01:30:56.664Z,94.00
2019-03-27T01:33:27.630Z,94.00
2019-03-27T01:36:00.164Z,94.00
2019-03-27T01:38:30.455Z,94.10
2019-03-27T01:41:03.739Z,94.20
2019-03-27T01:43:33.219Z,94.20
2019-03-27T01:46:04.621Z,94.10
2019-03-27T01:48:34.912Z,94.30
2019-03-27T01:51:05.293Z,94.60
2019-03-27T01:53:35.867Z,94.70
2019-03-27T01:56:07.667Z,94.80
2019-03-27T01:58:38.749Z,94.90
2019-03-27T02:01:07.472Z,94.90
2019-03-27T02:03:40.063Z,95.00
2019-03-27T02:06:12.140Z,94.90
2019-03-27T02:08:41.100Z,95.00
2019-03-27T02:11:10.004Z,95.20
2019-03-27T02:13:40.481Z,95.30
2019-03-27T02:16:10.463Z,95.30
2019-03-27T02:18:39.981Z,95.40
2019-03-27T02:21:10.747Z,95.40
2019-03-27T02:23:41.053Z,95.40
2019-03-27T02:26:09.645Z,95.50
2019-03-27T02:28:39.046Z,95.80
2019-03-27T02:31:07.849Z,96.10
2019-03-27T02:33:38.258Z,96.00
2019-03-27T02:36:07.327Z,96.30
2019-03-27T02:38:39.109Z,96.50
2019-03-27T02:41:09.028Z,96.60
2019-03-27T02:43:40.559Z,96.50
2019-03-27T02:46:23.650Z,96.60
2019-03-27T02:48:40.047Z,96.80
2019-03-27T02:51:10.370Z,96.90
2019-03-27T02:53:40.446Z,96.90
2019-03-27T02:56:09.253Z,96.90
2019-03-27T02:58:37.979Z,96.90
2019-03-27T03:01:07.506Z,96.90
2019-03-27T03:03:40.849Z,96.90
2019-03-27T03:06:11.520Z,96.80
2019-03-27T03:08:41.748Z,97.00
2019-03-27T03:11:14.659Z,97.10
2019-03-27T03:13:44.099Z,97.10
2019-03-27T03:16:14.571Z,97.00
2019-03-27T03:18:45.311Z,97.00
2019-03-27T03:21:14.464Z,96.90
2019-03-27T03:23:46.440Z,96.90
2019-03-27T03:26:16.873Z,96.90
2019-03-27T03:28:47.336Z,97.20
2019-03-27T03:31:16.202Z,96.90
2019-03-27T03:33:45.118Z,97.10
2019-03-27T03:36:14.778Z,97.10
2019-03-27T03:38:44.956Z,97.30
2019-03-27T03:41:14.857Z,97.10
2019-03-27T03:43:43.987Z,97.10
2019-03-27T03:46:13.510Z,97.10
2019-03-27T03:48:46.795Z,97.00
2019-03-27T03:51:15.838Z,97.00
2019-03-27T03:53:47.364Z,97.00
2019-03-27T03:56:18.947Z,97.00
2019-03-27T03:58:49.514Z,97.00
2019-03-27T04:01:20.694Z,96.80
2019-03-27T04:03:51.516Z,96.80
2019-03-27T04:06:20.421Z,97.00
2019-03-27T04:08:49.063Z,97.00
2019-03-27T04:11:19.841Z,96.90
2019-03-27T04:13:49.634Z,97.00
2019-03-27T04:16:22.041Z,97.10
2019-03-27T04:18:52.298Z,97.00
2019-03-27T04:21:26.929Z,96.90
2019-03-27T04:23:54.992Z,96.90
2019-03-27T04:26:25.276Z,96.80
2019-03-27T04:28:55.984Z,96.60
2019-03-27T04:31:24.781Z,96.50
2019-03-27T04:33:54.145Z,96.50
2019-03-27T04:36:23.890Z,96.30
2019-03-27T04:39:03.342Z,96.40
2019-03-27T04:41:33.166Z,96.50
2019-03-27T04:44:01.876Z,96.50
2019-03-27T04:46:30.663Z,96.30
2019-03-27T04:49:07.727Z,96.30
2019-03-27T04:51:31.882Z,96.20
2019-03-27T04:54:00.916Z,96.10
2019-03-27T04:56:29.712Z,96.00
2019-03-27T04:58:59.080Z,96.00
2019-03-27T05:01:27.792Z,95.90
2019-03-27T05:03:58.116Z,96.00
2019-03-27T05:06:27.803Z,96.20
2019-03-27T05:08:59.544Z,95.70
2019-03-27T05:11:28.924Z,95.60
2019-03-27T05:13:57.857Z,95.40
2019-03-27T05:16:28.989Z,95.20
2019-03-27T05:19:01.460Z,95.00
2019-03-27T05:21:33.700Z,94.80
2019-03-27T05:24:08.542Z,94.50
2019-03-27T05:26:37.686Z,94.10
2019-03-27T05:29:10.096Z,93.70
2019-03-27T05:31:42.520Z,93.20
2019-03-27T05:34:14.188Z,92.60
2019-03-27T05:36:43.656Z,91.80
2019-03-27T05:39:14.572Z,90.80
2019-03-27T05:41:57.244Z,89.00
2019-03-27T05:44:23.552Z,86.20
2019-03-27T05:46:55.104Z,83.30
2019-03-27T05:49:25.206Z,81.50
2019-03-27T05:51:56.716Z,80.00
2019-03-27T05:54:26.265Z,76.00
2019-03-27T05:56:59.581Z,73.80
2019-03-27T05:59:30.915Z,72.30
2019-03-27T06:02:02.202Z,73.70
2019-03-27T06:04:31.579Z,73.00
2019-03-27T06:07:03.944Z,71.50
2019-03-27T06:09:35.911Z,71.90
2019-03-27T06:12:05.286Z,70.00
2019-03-27T06:14:34.016Z,70.20
2019-03-27T06:17:02.804Z,68.50
2019-03-27T06:19:31.911Z,69.00
2019-03-27T06:22:03.634Z,69.00
2019-03-27T06:24:54.394Z,67.20
2019-03-27T06:27:24.595Z,64.90
2019-03-27T06:29:54.391Z,63.50
2019-03-27T06:32:26.827Z,63.00
2019-03-27T06:34:56.320Z,62.30
2019-03-27T06:37:30.089Z,60.70
2019-03-27T06:40:02.606Z,61.50
2019-03-27T06:42:32.302Z,63.70
2019-03-27T06:45:01.720Z,63.80
2019-03-27T06:47:31.464Z,63.30
2019-03-27T06:50:03.313Z,64.70
2019-03-27T06:52:41.988Z,64.10
2019-03-27T06:55:10.916Z,63.90
2019-03-27T06:57:41.227Z,59.70
2019-03-27T07:00:14.240Z,58.10
2019-03-27T07:02:45.107Z,58.80
2019-03-27T07:05:14.117Z,59.70
2019-03-27T07:07:45.161Z,57.90
2019-03-27T07:10:25.194Z,57.70
2019-03-27T07:12:52.600Z,57.20
2019-03-27T07:15:24.954Z,58.30
2019-03-27T07:18:02.527Z,57.50
2019-03-27T07:20:33.599Z,56.70
2019-03-27T07:23:04.926Z,56.70
2019-03-27T07:25:37.988Z,55.80
2019-03-27T07:28:09.629Z,54.30
2019-03-27T07:30:38.676Z,53.10
2019-03-27T07:33:07.474Z,53.90
2019-03-27T07:35:38.482Z,57.20
2019-03-27T07:38:09.852Z,56.00
2019-03-27T07:40:39.181Z,54.10
2019-03-27T07:43:16.011Z,53.50
2019-03-27T07:45:47.932Z,54.70
2019-03-27T07:48:16.805Z,54.70
2019-03-27T07:53:34.565Z,57.10
2019-03-27T07:56:07.442Z,57.50
2019-03-27T07:58:37.618Z,53.10
2019-03-27T08:01:06.301Z,51.40
2019-03-27T08:03:35.366Z,51.60
2019-03-27T08:06:06.357Z,52.80
2019-03-27T08:08:35.186Z,51.20
2019-03-27T08:11:05.340Z,50.50
2019-03-27T08:13:34.555Z,49.90
2019-03-27T08:16:07.038Z,48.00
2019-03-27T08:18:37.329Z,47.20
2019-03-27T08:21:08.425Z,49.60
2019-03-27T08:23:41.707Z,49.60
2019-03-27T08:26:11.195Z,49.90
2019-03-27T08:28:39.827Z,47.40
2019-03-27T08:31:08.581Z,46.30
2019-03-27T08:33:37.380Z,45.30
2019-03-27T08:36:06.133Z,45.60
2019-03-27T08:38:35.890Z,46.60
2019-03-27T08:41:04.765Z,45.50
2019-03-27T08:43:33.467Z,44.70
2019-03-27T08:46:03.013Z,43.80
2019-03-27T08:48:33.096Z,45.00
2019-03-27T08:51:02.103Z,45.70
2019-03-27T08:53:33.495Z,46.70
2019-03-27T08:56:02.172Z,46.60
2019-03-27T08:58:33.810Z,44.30
2019-03-27T09:01:02.699Z,44.00
2019-03-27T09:03:31.431Z,43.80
2019-03-27T09:06:03.509Z,42.00
2019-03-27T09:08:34.708Z,41.80
2019-03-27T09:11:04.831Z,43.60
2019-03-27T09:13:33.684Z,43.50
2019-03-27T09:16:02.635Z,45.10
2019-03-27T09:18:31.667Z,45.20
2019-03-27T09:21:01.803Z,44.80
2019-03-27T09:23:35.312Z,45.00
2019-03-27T09:26:04.246Z,44.80
2019-03-27T09:28:33.213Z,46.20
2019-03-27T09:31:02.593Z,44.70
2019-03-27T09:33:32.095Z,45.30
2019-03-27T09:36:02.276Z,45.50
2019-03-27T09:38:31.231Z,45.90
2019-03-27T09:40:59.929Z,43.90
2019-03-27T09:43:28.893Z,44.00
2019-03-27T09:45:57.672Z,43.20
2019-03-27T09:48:27.386Z,43.50
2019-03-27T09:50:56.039Z,43.50
2019-03-27T09:53:26.098Z,42.20
2019-03-27T09:55:54.933Z,42.30
2019-03-27T09:58:23.688Z,40.10
2019-03-27T10:00:54.371Z,41.60
2019-03-27T10:03:25.461Z,42.90
2019-03-27T10:05:54.959Z,42.90
2019-03-27T10:08:23.619Z,45.60
2019-03-27T10:10:52.752Z,45.50
2019-03-27T10:13:21.949Z,45.40
2019-03-27T10:15:53.240Z,44.30
2019-03-27T10:18:22.029Z,44.20
2019-03-27T10:20:51.648Z,43.60
2019-03-27T10:23:21.543Z,42.20
2019-03-27T10:25:51.144Z,42.80
2019-03-27T10:28:19.801Z,40.90
2019-03-27T10:30:53.663Z,39.10
2019-03-27T10:33:23.402Z,39.40
2019-03-27T10:35:52.150Z,39.20
2019-03-27T10:38:21.115Z,39.30
2019-03-27T10:40:50.252Z,39.40
2019-03-27T10:43:20.397Z,39.70
2019-03-27T10:45:49.807Z,41.80
2019-03-27T10:48:18.617Z,43.20
2019-03-27T10:50:49.773Z,42.60
2019-03-27T10:53:18.482Z,41.50
2019-03-27T10:55:49.015Z,43.70
2019-03-27T10:58:17.616Z,42.00
2019-03-27T11:00:49.027Z,41.20
2019-03-27T11:03:17.737Z,41.20
2019-03-27T11:05:49.737Z,40.90
2019-03-27T11:08:18.594Z,39.80
2019-03-27T11:10:49.529Z,38.00
2019-03-27T11:13:18.290Z,40.50
2019-03-27T11:15:48.608Z,44.10
2019-03-27T11:18:17.416Z,43.70
2019-03-27T11:20:48.437Z,42.70
2019-03-27T11:23:17.759Z,39.90
2019-03-27T11:25:47.044Z,40.80
2019-03-27T11:28:16.477Z,40.60
2019-03-27T11:30:48.367Z,40.20
2019-03-27T11:33:18.641Z,38.30
2019-03-27T11:35:47.661Z,38.60
2019-03-27T11:38:16.460Z,37.50
2019-03-27T11:40:45.350Z,36.20
2019-03-27T11:43:23.005Z,35.30
2019-03-27T11:45:48.928Z,34.20
2019-03-27T11:48:17.927Z,34.20
2019-03-27T11:50:46.638Z,35.70
2019-03-27T11:53:18.936Z,37.50
2019-03-27T11:55:47.655Z,38.30
2019-03-27T11:58:17.464Z,39.70
2019-03-27T12:00:54.376Z,40.80
2019-03-27T12:03:19.297Z,41.20
2019-03-27T12:05:48.115Z,41.60
2019-03-27T12:08:16.962Z,41.00
2019-03-27T12:10:45.767Z,41.30
2019-03-27T12:13:15.667Z,41.30
2019-03-27T12:15:44.683Z,40.60
2019-03-27T12:18:14.533Z,40.40
2019-03-27T12:20:57.781Z,39.10
2019-03-27T12:23:16.094Z,40.10
2019-03-27T12:25:56.370Z,39.70
2019-03-27T12:28:25.083Z,40.00
2019-03-27T12:30:53.917Z,39.50
2019-03-27T12:33:22.605Z,38.70
2019-03-27T12:35:51.588Z,38.60
2019-03-27T12:38:20.490Z,39.90
2019-03-27T12:40:50.364Z,38.40
2019-03-27T12:43:19.582Z,38.50
2019-03-27T12:45:52.327Z,38.70
2019-03-27T12:48:25.291Z,38.30
2019-03-27T12:50:57.167Z,38.00
2019-03-27T12:53:26.528Z,38.50
2019-03-27T12:55:55.443Z,39.00
2019-03-27T12:58:24.063Z,37.40
2019-03-27T13:00:59.266Z,38.00
2019-03-27T13:03:31.772Z,39.10
2019-03-27T13:06:02.246Z,39.10
2019-03-27T13:08:32.901Z,39.70
2019-03-27T13:11:02.384Z,40.60
2019-03-27T13:13:31.245Z,40.30
2019-03-27T13:16:01.046Z,40.10
2019-03-27T13:18:29.749Z,39.30
2019-03-27T13:20:58.557Z,39.10
2019-03-27T13:23:27.764Z,39.30
2019-03-27T13:25:56.928Z,39.90
2019-03-27T13:28:26.252Z,38.90
2019-03-27T13:30:57.068Z,38.80
2019-03-27T13:33:26.165Z,39.70
2019-03-27T13:35:55.302Z,39.40
2019-03-27T13:38:25.625Z,39.00
2019-03-27T13:40:57.224Z,38.80
2019-03-27T13:43:36.102Z,39.80
2019-03-27T13:46:06.167Z,39.70
2019-03-27T13:48:34.972Z,37.90
2019-03-27T13:51:03.688Z,37.80
2019-03-27T13:53:37.459Z,38.30
2019-03-27T13:56:10.079Z,39.50
2019-03-27T13:58:39.471Z,38.70
2019-03-27T14:01:09.093Z,38.90
2019-03-27T14:03:38.802Z,39.10
2019-03-27T14:06:07.792Z,40.20
2019-03-27T14:08:36.601Z,39.20
2019-03-27T14:11:05.242Z,39.30
2019-03-27T14:13:34.036Z,39.80
2019-03-27T14:16:04.273Z,38.40
2019-03-27T14:18:33.031Z,38.30
2019-03-27T14:21:01.850Z,39.40
2019-03-27T14:23:30.714Z,39.40
2019-03-27T14:25:59.262Z,40.40
2019-03-27T14:28:28.008Z,40.40
2019-03-27T14:30:57.792Z,41.00
2019-03-27T14:33:27.940Z,41.10
2019-03-27T14:35:56.823Z,40.70
2019-03-27T14:38:26.583Z,41.30
2019-03-27T14:40:58.656Z,41.60
2019-03-27T14:43:27.840Z,42.10
2019-03-27T14:45:56.679Z,41.90
2019-03-27T14:48:25.316Z,42.10
2019-03-27T14:50:53.827Z,41.90
2019-03-27T14:53:23.539Z,42.30
2019-03-27T14:55:54.107Z,42.90
2019-03-27T14:58:22.852Z,43.40
2019-03-27T15:00:52.926Z,43.30
2019-03-27T15:03:21.863Z,43.50
2019-03-27T15:05:50.890Z,43.30
2019-03-27T15:08:19.545Z,43.70
2019-03-27T15:10:49.599Z,43.70
2019-03-27T15:13:18.532Z,44.40
2019-03-27T15:15:49.059Z,44.80
2019-03-27T15:18:21.578Z,45.20
2019-03-27T15:20:55.393Z,45.10
2019-03-27T15:23:27.752Z,45.40
2019-03-27T15:25:58.323Z,45.60
2019-03-27T15:28:31.852Z,46.20
2019-03-27T15:31:04.116Z,46.70
2019-03-27T15:33:37.566Z,46.70
2019-03-27T15:36:07.931Z,47.00
2019-03-27T15:38:36.620Z,47.70
2019-03-27T15:41:06.145Z,48.20
2019-03-27T15:43:34.939Z,48.10
2019-03-27T15:46:07.345Z,48.60
2019-03-27T15:48:36.751Z,49.30
2019-03-27T15:51:05.621Z,49.30
2019-03-27T15:53:38.565Z,49.50
2019-03-27T15:56:08.672Z,49.50
2019-03-27T15:58:41.269Z,49.50
2019-03-27T16:01:11.916Z,49.70
2019-03-27T16:03:41.391Z,49.70
2019-03-27T16:06:11.801Z,50.00
2019-03-27T16:08:40.737Z,50.20
2019-03-27T16:11:12.463Z,50.50
2019-03-27T16:13:42.336Z,50.40
2019-03-27T16:16:11.250Z,50.30
2019-03-27T16:18:40.576Z,50.20
2019-03-27T16:21:11.859Z,50.40
2019-03-27T16:23:40.724Z,50.70
2019-03-27T16:26:10.785Z,50.80
2019-03-27T16:28:44.711Z,51.60
2019-03-27T16:31:10.790Z,52.00
2019-03-27T16:33:39.513Z,52.00
2019-03-27T16:36:08.163Z,52.30
2019-03-27T16:38:36.800Z,52.30
2019-03-27T16:41:06.848Z,52.30
2019-03-27T16:43:36.886Z,52.40
2019-03-27T16:46:06.602Z,53.30
2019-03-27T16:48:35.199Z,53.10
2019-03-27T16:51:04.055Z,52.90
2019-03-27T16:53:32.825Z,52.90
2019-03-27T16:56:05.620Z,53.20
2019-03-27T16:58:34.218Z,52.70
2019-03-27T17:01:05.012Z,53.40
2019-03-27T17:03:33.931Z,53.20
2019-03-27T17:06:02.733Z,53.30
2019-03-27T17:08:31.527Z,53.50
2019-03-27T17:11:00.213Z,54.00
2019-03-27T17:13:33.001Z,52.90
2019-03-27T17:16:04.852Z,53.10
2019-03-27T17:18:33.621Z,53.30
2019-03-27T17:21:02.436Z,53.30
2019-03-27T17:23:32.772Z,53.20
2019-03-27T17:26:05.487Z,53.20
2019-03-27T17:28:35.982Z,54.30
2019-03-27T17:31:04.843Z,54.00
2019-03-27T17:33:42.065Z,54.00
2019-03-27T17:36:09.846Z,53.90
2019-03-27T17:38:39.195Z,53.70
2019-03-27T17:41:09.854Z,53.20
2019-03-27T17:43:38.596Z,53.50
2019-03-27T17:46:14.624Z,53.70
2019-03-27T17:48:47.192Z,53.10
2019-03-27T17:51:16.129Z,53.30
2019-03-27T17:53:47.181Z,52.90
2019-03-27T17:56:16.403Z,52.70
2019-03-27T17:58:45.672Z,52.20
2019-03-27T18:01:14.380Z,52.60
2019-03-27T18:03:45.811Z,52.50
2019-03-27T18:06:17.564Z,51.80
2019-03-27T18:08:46.777Z,52.10
2019-03-27T18:11:17.941Z,52.10
2019-03-27T18:13:49.381Z,51.90
2019-03-27T18:16:20.290Z,51.80
2019-03-27T18:18:53.462Z,51.80
2019-03-27T18:21:24.133Z,52.00
2019-03-27T18:23:56.634Z,52.00
2019-03-27T18:26:28.577Z,52.20
2019-03-27T18:28:58.003Z,52.30
2019-03-27T18:31:30.287Z,52.30
2019-03-27T18:34:08.757Z,52.60
2019-03-27T18:36:48.365Z,52.30
2019-03-27T18:39:19.463Z,52.60
2019-03-27T18:41:58.938Z,52.70
2019-03-27T18:44:26.654Z,52.80
2019-03-27T18:46:55.927Z,53.10
2019-03-27T18:49:24.780Z,53.10
2019-03-27T18:51:54.987Z,53.40
2019-03-27T18:54:27.457Z,53.40
2019-03-27T18:56:59.216Z,53.10
2019-03-27T18:59:37.622Z,53.30
2019-03-27T19:02:02.164Z,53.20
2019-03-27T19:04:33.301Z,53.50
2019-03-27T19:07:04.068Z,53.70
2019-03-27T19:09:33.983Z,53.60
2019-03-27T19:12:08.580Z,53.50
2019-03-27T19:14:40.194Z,53.90
2019-03-27T19:17:15.504Z,53.90
2019-03-27T19:19:46.137Z,54.10
2019-03-27T19:22:15.109Z,54.50
2019-03-27T19:24:45.448Z,54.10
2019-03-27T19:27:14.263Z,54.30
2019-03-27T19:29:50.295Z,54.70
2019-03-27T19:32:22.376Z,55.20
2019-03-27T19:34:53.687Z,55.30
2019-03-27T19:37:29.930Z,55.30
2019-03-27T19:40:01.289Z,55.80
2019-03-27T19:42:34.103Z,56.10
2019-03-27T19:45:06.949Z,56.60
2019-03-27T19:47:45.788Z,56.70
2019-03-27T19:50:17.138Z,57.00
2019-03-27T19:52:50.151Z,57.60
2019-03-27T19:55:23.753Z,57.80
2019-03-27T19:57:55.449Z,58.20
2019-03-27T20:00:24.999Z,58.30
2019-03-27T20:03:00.031Z,58.40
2019-03-27T20:05:30.336Z,58.90
2019-03-27T20:08:03.621Z,59.20
2019-03-27T20:10:35.578Z,59.50
2019-03-27T20:13:06.628Z,59.80
2019-03-27T20:15:37.779Z,60.20
2019-03-27T20:18:06.676Z,60.30
2019-03-27T20:20:36.502Z,60.50
2019-03-27T20:23:15.220Z,61.20
2019-03-27T20:25:43.593Z,62.00
2019-03-27T20:31:18.110Z,62.80
2019-03-27T20:33:49.633Z,63.10
2019-03-27T20:36:26.976Z,64.10
2019-03-27T20:38:59.474Z,64.60
2019-03-27T20:41:30.930Z,65.10
2019-03-27T20:44:02.292Z,65.90
2019-03-27T20:46:48.847Z,66.20
2019-03-27T20:49:17.673Z,67.10
2019-03-27T20:51:49.824Z,67.30
2019-03-27T20:54:19.669Z,68.20
2019-03-27T20:56:51.374Z,68.30
2019-03-27T20:59:23.072Z,68.50
2019-03-27T21:01:51.855Z,68.90
2019-03-27T21:04:21.087Z,69.00
2019-03-27T21:06:49.861Z,69.70
2019-03-27T21:09:18.633Z,69.90
2019-03-27T21:11:51.434Z,70.30
2019-03-27T21:14:24.785Z,70.30
2019-03-27T21:16:53.729Z,70.90
2019-03-27T21:19:24.108Z,71.30
2019-03-27T21:21:52.717Z,71.70
2019-03-27T21:24:21.385Z,72.10
2019-03-27T21:26:50.865Z,72.00
2019-03-27T21:29:20.802Z,72.50
2019-03-27T21:31:51.835Z,72.80
2019-03-27T21:34:24.018Z,73.10
2019-03-27T21:36:52.959Z,73.40
2019-03-27T21:39:22.129Z,73.70
2019-03-27T21:41:52.784Z,74.00
2019-03-27T21:44:21.498Z,74.20
2019-03-27T21:46:58.447Z,74.70
2019-03-27T21:49:28.466Z,75.10
2019-03-27T21:51:57.255Z,75.40
2019-03-27T21:54:26.162Z,75.70
2019-03-27T21:56:57.781Z,76.40
2019-03-27T21:59:26.756Z,76.80
2019-03-27T22:01:55.436Z,76.80
2019-03-27T22:04:24.842Z,77.30
2019-03-27T22:06:54.953Z,77.50
2019-03-27T22:09:23.755Z,77.90
2019-03-27T22:11:52.594Z,78.20
2019-03-27T22:14:22.424Z,78.50
2019-03-27T22:16:51.538Z,78.60
2019-03-27T22:19:22.330Z,79.10
2019-03-27T22:21:54.548Z,79.70
2019-03-27T22:24:23.622Z,80.30
2019-03-27T22:26:54.253Z,80.80
2019-03-27T22:29:22.982Z,80.80
2019-03-27T22:31:52.157Z,81.20
2019-03-27T22:34:22.260Z,81.70
2019-03-27T22:36:51.561Z,81.90
2019-03-27T22:39:20.527Z,82.30
2019-03-27T22:41:49.231Z,82.40
2019-03-27T22:44:19.326Z,82.60
2019-03-27T22:46:49.704Z,82.80
2019-03-27T22:49:18.314Z,83.20
2019-03-27T22:51:48.671Z,83.50
2019-03-27T22:54:17.401Z,84.40
2019-03-27T22:56:46.236Z,83.70
2019-03-27T22:59:15.231Z,84.00
2019-03-27T23:01:46.936Z,84.20
2019-03-27T23:04:15.702Z,85.30
2019-03-27T23:06:46.350Z,86.20
2019-03-27T23:09:14.964Z,87.20
2019-03-27T23:11:44.362Z,88.30
2019-03-27T23:14:15.046Z,89.90
2019-03-27T23:16:44.273Z,90.30
2019-03-27T23:19:13.237Z,90.80
2019-03-27T23:21:41.855Z,91.50
2019-03-27T23:24:14.041Z,92.20
2019-03-27T23:26:42.831Z,92.60
2019-03-27T23:29:11.674Z,92.80
2019-03-27T23:31:41.975Z,92.60
2019-03-27T23:34:10.785Z,92.50
2019-03-27T23:36:39.596Z,92.20
2019-03-27T23:39:09.180Z,92.00
2019-03-27T23:41:42.066Z,91.80
2019-03-27T23:44:12.036Z,91.50
2019-03-27T23:46:40.650Z,91.20
2019-03-27T23:49:09.347Z,91.00
2019-03-27T23:51:39.626Z,90.90
2019-03-27T23:54:08.484Z,90.80
2019-03-27T23:56:39.747Z,90.90
2019-03-27T23:59:09.856Z,90.80
